Terminal Aerodrome Forecast
Issued by NWS

Home | Current Version | Previous Version | Text Only | Print | Product List | Glossary On
Versions: 1 2 3 4 5 6 7 8 9 10 11 12 13 14
000
FTUS41 KBTV 211138
TAFRUT
TAF
KRUT 211138Z 2112/2212 VRB03KT P6SM SCT025 OVC035
      TEMPO 2112/2116 BKN025
     FM211600 VRB03KT P6SM BKN025
     FM220000 VRB02KT P6SM OVC015
      AMD LTD TO CLD VIS AND WIND=

USA.gov is the U.S. government's official web portal to all federal, state and local government web resources and services.